createdAt,value
2018-04-09T00:00:19.127Z,5.10
2018-04-09T00:02:46.711Z,5.10
2018-04-09T00:05:13.559Z,5.10
2018-04-09T00:07:40.324Z,5.10
2018-04-09T00:10:07.277Z,5.10
2018-04-09T00:12:34.374Z,5.00
2018-04-09T00:15:02.044Z,5.00
2018-04-09T00:17:29.173Z,5.00
2018-04-09T00:19:55.983Z,5.00
2018-04-09T00:22:23.761Z,5.00
2018-04-09T00:24:50.524Z,5.00
2018-04-09T00:27:16.996Z,5.00
2018-04-09T00:29:43.749Z,5.00
2018-04-09T00:32:10.511Z,5.00
2018-04-09T00:34:37.026Z,4.90
2018-04-09T00:37:03.825Z,4.90
2018-04-09T00:39:30.781Z,4.90
2018-04-09T00:41:57.562Z,4.80
2018-04-09T00:44:24.349Z,4.80
2018-04-09T00:46:51.090Z,4.80
2018-04-09T00:49:18.550Z,4.80
2018-04-09T00:51:45.424Z,4.70
2018-04-09T00:54:12.201Z,4.70
2018-04-09T00:56:38.930Z,4.70
2018-04-09T00:59:06.332Z,4.70
2018-04-09T01:01:37.689Z,4.70
2018-04-09T01:04:04.564Z,4.60
2018-04-09T01:06:31.066Z,4.60
2018-04-09T01:08:57.919Z,4.60
2018-04-09T01:11:25.461Z,4.60
2018-04-09T01:13:52.334Z,4.60
2018-04-09T01:16:19.089Z,4.60
2018-04-09T01:18:45.857Z,4.60
2018-04-09T01:21:12.612Z,4.60
2018-04-09T01:23:39.035Z,4.60
2018-04-09T01:26:05.851Z,4.60
2018-04-09T01:28:33.140Z,4.60
2018-04-09T01:31:00.589Z,4.60
2018-04-09T01:33:28.084Z,4.60
2018-04-09T01:35:54.898Z,4.60
2018-04-09T01:38:21.706Z,4.60
2018-04-09T01:40:48.665Z,4.50
2018-04-09T01:43:16.456Z,4.50
2018-04-09T01:45:43.066Z,4.50
2018-04-09T01:48:10.030Z,4.40
2018-04-09T01:50:36.737Z,4.40
2018-04-09T01:53:03.617Z,4.40
2018-04-09T01:55:30.370Z,4.40
2018-04-09T01:57:57.130Z,4.40
2018-04-09T02:00:24.451Z,4.30
2018-04-09T02:02:51.175Z,4.30
2018-04-09T02:05:17.934Z,4.30
2018-04-09T02:07:44.817Z,4.30
2018-04-09T02:10:12.581Z,4.20
2018-04-09T02:12:39.385Z,4.20
2018-04-09T02:15:06.215Z,4.10
2018-04-09T02:17:33.863Z,4.10
2018-04-09T02:20:01.324Z,4.10
2018-04-09T02:22:28.053Z,4.10
2018-04-09T02:24:56.068Z,4.00
2018-04-09T02:27:23.504Z,4.10
2018-04-09T02:29:50.270Z,4.00
2018-04-09T02:32:16.940Z,4.00
2018-04-09T02:34:43.898Z,4.00
2018-04-09T02:37:10.653Z,4.00
2018-04-09T02:39:37.529Z,4.00
2018-04-09T02:42:04.951Z,4.00
2018-04-09T02:44:31.784Z,4.00
2018-04-09T02:46:59.056Z,3.90
2018-04-09T02:49:26.019Z,3.90
2018-04-09T02:51:52.748Z,3.90
2018-04-09T02:54:19.663Z,3.90
2018-04-09T02:56:46.122Z,3.80
2018-04-09T02:59:12.876Z,3.80
2018-04-09T03:01:39.588Z,3.80
2018-04-09T03:04:06.721Z,3.80
2018-04-09T03:06:34.283Z,3.80
2018-04-09T03:09:01.850Z,3.80
2018-04-09T03:11:28.622Z,3.80
2018-04-09T03:13:56.447Z,3.80
2018-04-09T03:16:23.164Z,3.80
2018-04-09T03:18:49.919Z,3.80
2018-04-09T03:21:17.003Z,3.80
2018-04-09T03:23:43.753Z,3.80
2018-04-09T03:26:10.733Z,3.90
2018-04-09T03:28:37.493Z,3.90
2018-04-09T03:31:04.739Z,3.90
2018-04-09T03:33:31.498Z,3.90
2018-04-09T03:35:58.285Z,3.90
2018-04-09T03:38:25.876Z,3.90
2018-04-09T03:40:52.640Z,3.90
2018-04-09T03:43:19.402Z,3.90
2018-04-09T03:45:46.274Z,3.90
2018-04-09T03:48:13.046Z,3.90
2018-04-09T03:50:39.812Z,3.90
2018-04-09T03:53:06.636Z,3.90
2018-04-09T03:55:33.423Z,3.90
2018-04-09T03:58:00.159Z,3.90
2018-04-09T04:00:27.865Z,3.90
2018-04-09T04:02:54.852Z,3.90
2018-04-09T04:05:21.819Z,3.90
2018-04-09T04:07:48.579Z,3.90
2018-04-09T04:10:15.449Z,3.90
2018-04-09T04:12:42.667Z,3.90
2018-04-09T04:15:09.365Z,3.90
2018-04-09T04:17:48.411Z,3.90
2018-04-09T04:20:30.006Z,3.90
2018-04-09T04:22:56.762Z,4.00
2018-04-09T04:25:23.535Z,4.00
2018-04-09T04:27:50.439Z,4.00
2018-04-09T04:30:18.173Z,4.00
2018-04-09T04:32:45.552Z,4.00
2018-04-09T04:35:12.394Z,4.10
2018-04-09T04:37:39.079Z,4.10
2018-04-09T04:40:06.040Z,4.10
2018-04-09T04:42:32.874Z,4.20
2018-04-09T04:44:59.451Z,4.20
2018-04-09T04:47:27.879Z,4.30
2018-04-09T04:49:54.644Z,4.30
2018-04-09T04:52:21.489Z,4.40
2018-04-09T04:54:48.469Z,4.40
2018-04-09T04:57:15.182Z,4.50
2018-04-09T04:59:42.097Z,4.60
2018-04-09T05:02:09.847Z,4.80
2018-04-09T05:04:36.537Z,4.90
2018-04-09T05:07:03.300Z,5.00
2018-04-09T05:09:29.799Z,5.10
2018-04-09T05:11:56.528Z,5.20
2018-04-09T05:14:42.549Z,5.40
2018-04-09T05:17:08.980Z,5.60
2018-04-09T05:19:35.437Z,5.70
2018-04-09T05:22:01.903Z,6.40
2018-04-09T05:24:28.301Z,7.70
2018-04-09T05:26:54.788Z,9.30
2018-04-09T05:29:21.322Z,10.70
2018-04-09T05:31:48.593Z,13.10
2018-04-09T05:34:16.765Z,14.10
2018-04-09T05:36:43.236Z,14.10
2018-04-09T05:39:10.564Z,15.90
2018-04-09T05:41:36.951Z,15.90
2018-04-09T05:44:03.369Z,16.80
2018-04-09T05:46:29.847Z,17.80
2018-04-09T05:48:56.277Z,18.50
2018-04-09T05:51:22.801Z,19.30
2018-04-09T05:53:49.997Z,20.80
2018-04-09T05:56:16.532Z,20.70
2018-04-09T05:58:43.688Z,21.80
2018-04-09T06:01:10.887Z,22.30
2018-04-09T06:03:37.326Z,22.30
2018-04-09T06:06:04.492Z,23.70
2018-04-09T06:08:31.669Z,24.40
2018-04-09T06:10:58.951Z,25.00
2018-04-09T06:13:26.156Z,25.50
2018-04-09T06:15:52.681Z,25.50
2018-04-09T06:18:19.936Z,26.70
2018-04-09T06:20:46.361Z,26.70
2018-04-09T06:23:12.794Z,27.20
2018-04-09T06:25:39.246Z,27.30
2018-04-09T06:28:05.738Z,27.40
2018-04-09T06:30:32.239Z,27.90
2018-04-09T06:32:59.412Z,28.80
2018-04-09T06:35:26.687Z,29.00
2018-04-09T06:37:53.959Z,29.10
2018-04-09T06:40:21.158Z,29.20
2018-04-09T06:42:47.599Z,29.10
2018-04-09T06:45:14.019Z,29.30
2018-04-09T06:47:41.210Z,30.50
2018-04-09T06:50:08.393Z,31.20
2018-04-09T06:52:35.618Z,31.90
2018-04-09T06:55:02.097Z,31.80
2018-04-09T06:57:28.480Z,32.30
2018-04-09T06:59:54.958Z,32.80
2018-04-09T07:02:21.489Z,32.90
2018-04-09T07:04:48.678Z,33.60
2018-04-09T07:07:15.174Z,33.60
2018-04-09T07:09:41.675Z,34.30
2018-04-09T07:12:08.826Z,35.60
2018-04-09T07:14:35.246Z,35.50
2018-04-09T07:17:01.622Z,36.10
2018-04-09T07:19:28.092Z,36.70
2018-04-09T07:21:55.391Z,37.90
2018-04-09T07:24:22.662Z,38.00
2018-04-09T07:26:49.839Z,38.30
2018-04-09T07:29:16.300Z,38.20
2018-04-09T07:31:42.725Z,38.60
2018-04-09T07:34:10.631Z,38.40
2018-04-09T07:36:37.771Z,38.30
2018-04-09T07:39:04.281Z,38.30
2018-04-09T07:41:30.729Z,38.60
2018-04-09T07:43:57.861Z,39.50
2018-04-09T07:46:24.284Z,39.50
2018-04-09T07:48:50.708Z,40.10
2018-04-09T07:51:17.868Z,40.50
2018-04-09T07:53:45.029Z,40.90
2018-04-09T07:56:12.266Z,41.20
2018-04-09T07:58:38.688Z,41.10
2018-04-09T08:01:05.094Z,41.40
2018-04-09T08:03:31.526Z,42.00
2018-04-09T08:05:57.948Z,42.50
2018-04-09T08:08:25.144Z,43.00
2018-04-09T08:10:52.159Z,43.00
2018-04-09T08:13:18.674Z,43.00
2018-04-09T08:15:45.303Z,43.00
2018-04-09T08:18:12.462Z,43.00
2018-04-09T08:20:39.627Z,43.10
2018-04-09T08:23:06.067Z,43.10
2018-04-09T08:25:32.498Z,43.60
2018-04-09T08:27:58.936Z,43.90
2018-04-09T08:30:25.358Z,44.10
2018-04-09T08:32:52.498Z,44.00
2018-04-09T08:35:19.002Z,43.90
2018-04-09T08:37:45.407Z,43.30
2018-04-09T08:40:11.819Z,42.10
2018-04-09T08:42:38.231Z,40.80
2018-04-09T08:45:05.540Z,39.60
2018-04-09T08:47:32.686Z,38.90
2018-04-09T08:49:59.130Z,38.90
2018-04-09T08:52:25.626Z,37.50
2018-04-09T08:54:52.072Z,35.80
2018-04-09T08:57:19.279Z,32.40
2018-04-09T08:59:45.760Z,32.30
2018-04-09T09:02:12.260Z,31.00
2018-04-09T09:04:39.443Z,28.60
2018-04-09T09:07:06.718Z,27.70
2018-04-09T09:09:33.891Z,26.70
2018-04-09T09:12:00.357Z,26.60
2018-04-09T09:14:26.815Z,25.80
2018-04-09T09:16:53.229Z,25.00
2018-04-09T09:19:20.531Z,23.90
2018-04-09T09:21:47.703Z,23.50
2018-04-09T09:24:14.870Z,23.10
2018-04-09T09:26:42.035Z,22.70
2018-04-09T09:29:09.221Z,22.50
2018-04-09T09:31:36.376Z,22.20
2018-04-09T09:34:02.792Z,22.10
2018-04-09T09:36:29.379Z,22.10
2018-04-09T09:38:55.818Z,22.00
2018-04-09T09:41:22.226Z,21.90
2018-04-09T09:43:48.671Z,21.80
2018-04-09T09:46:16.341Z,21.90
2018-04-09T09:48:43.590Z,21.90
2018-04-09T09:51:10.009Z,21.90
2018-04-09T09:53:36.459Z,21.90
2018-04-09T09:56:02.889Z,21.90
2018-04-09T09:58:30.038Z,21.90
2018-04-09T10:01:01.086Z,21.80
2018-04-09T10:03:28.268Z,21.70
2018-04-09T10:05:54.686Z,21.70
2018-04-09T10:08:21.214Z,21.60
2018-04-09T10:10:47.665Z,21.70
2018-04-09T10:13:14.843Z,21.70
2018-04-09T10:15:41.284Z,21.70
2018-04-09T10:18:08.441Z,21.70
2018-04-09T10:20:34.852Z,21.70
2018-04-09T10:23:01.384Z,21.70
2018-04-09T10:25:27.952Z,21.70
2018-04-09T10:27:54.502Z,21.60
2018-04-09T10:30:20.952Z,21.70
2018-04-09T10:32:48.162Z,21.70
2018-04-09T10:35:14.624Z,21.60
2018-04-09T10:37:41.022Z,21.60
2018-04-09T10:40:08.317Z,21.60
2018-04-09T10:42:34.977Z,21.60
2018-04-09T10:45:02.144Z,21.60
2018-04-09T10:47:29.359Z,21.70
2018-04-09T10:49:55.829Z,21.60
2018-04-09T10:52:22.247Z,21.70
2018-04-09T10:54:48.673Z,21.70
2018-04-09T10:57:15.964Z,21.80
2018-04-09T10:59:42.394Z,21.80
2018-04-09T11:02:09.557Z,21.80
2018-04-09T11:04:36.027Z,21.80
2018-04-09T11:07:02.442Z,21.90
2018-04-09T11:09:28.900Z,22.00
2018-04-09T11:11:55.524Z,22.10
2018-04-09T11:14:21.954Z,22.20
2018-04-09T11:16:48.390Z,22.20
2018-04-09T11:19:14.825Z,22.20
2018-04-09T11:21:41.259Z,22.10
2018-04-09T11:24:07.699Z,22.20
2018-04-09T11:26:34.877Z,22.40
2018-04-09T11:29:01.635Z,22.30
2018-04-09T11:31:28.080Z,22.50
2018-04-09T11:33:55.249Z,22.40
2018-04-09T11:36:22.411Z,22.40
2018-04-09T11:38:48.832Z,22.40
2018-04-09T11:41:15.228Z,22.30
2018-04-09T11:43:42.368Z,22.20
2018-04-09T11:46:08.780Z,22.20
2018-04-09T11:48:35.179Z,22.20
2018-04-09T11:51:01.569Z,22.10
2018-04-09T11:53:28.010Z,22.00
2018-04-09T11:55:54.469Z,22.00
2018-04-09T11:58:20.957Z,22.10
2018-04-09T12:00:48.130Z,22.50
2018-04-09T12:03:14.676Z,22.50
2018-04-09T12:05:41.943Z,22.60
2018-04-09T12:08:09.139Z,22.60
2018-04-09T12:10:35.569Z,22.60
2018-04-09T12:13:02.844Z,22.60
2018-04-09T12:15:30.141Z,22.60
2018-04-09T12:17:57.317Z,22.70
2018-04-09T12:20:23.870Z,22.70
2018-04-09T12:22:51.058Z,22.90
2018-04-09T12:25:17.601Z,22.80
2018-04-09T12:27:44.060Z,22.90
2018-04-09T12:30:11.200Z,22.90
2018-04-09T12:32:38.346Z,23.00
2018-04-09T12:35:04.819Z,23.00
2018-04-09T12:37:31.300Z,23.10
2018-04-09T12:39:58.496Z,23.30
2018-04-09T12:42:25.002Z,23.30
2018-04-09T12:44:51.471Z,23.40
2018-04-09T12:47:19.413Z,23.50
2018-04-09T12:49:45.819Z,23.50
2018-04-09T12:52:13.120Z,23.60
2018-04-09T12:54:40.411Z,23.70
2018-04-09T12:57:06.955Z,23.70
2018-04-09T12:59:34.129Z,23.50
2018-04-09T13:02:00.683Z,23.50
2018-04-09T13:04:27.142Z,23.40
2018-04-09T13:06:53.600Z,23.30
2018-04-09T13:09:20.013Z,23.20
2018-04-09T13:11:46.560Z,23.10
2018-04-09T13:14:13.022Z,23.10
2018-04-09T13:16:39.571Z,23.10
2018-04-09T13:19:05.979Z,23.10
2018-04-09T13:21:34.099Z,23.00
2018-04-09T13:24:01.444Z,23.00
2018-04-09T13:26:28.612Z,23.00
2018-04-09T13:28:55.790Z,23.00
2018-04-09T13:31:22.226Z,23.00
2018-04-09T13:33:49.519Z,22.90
2018-04-09T13:36:16.032Z,22.90
2018-04-09T13:38:42.445Z,23.00
2018-04-09T13:41:08.991Z,23.10
2018-04-09T13:43:35.548Z,23.20
2018-04-09T13:46:02.708Z,23.20
2018-04-09T13:48:29.995Z,23.10
2018-04-09T13:50:57.140Z,23.10
2018-04-09T13:53:24.317Z,23.20
2018-04-09T13:55:51.693Z,23.20
2018-04-09T13:58:18.854Z,23.00
2018-04-09T14:00:47.025Z,23.00
2018-04-09T14:03:13.462Z,22.90
2018-04-09T14:05:39.875Z,22.70
2018-04-09T14:08:07.052Z,22.50
2018-04-09T14:10:34.811Z,22.30
2018-04-09T14:13:01.243Z,22.30
2018-04-09T14:15:27.736Z,22.30
2018-04-09T14:17:54.213Z,22.10
2018-04-09T14:20:21.409Z,21.90
2018-04-09T14:22:48.031Z,21.90
2018-04-09T14:25:16.438Z,21.70
2018-04-09T14:27:43.471Z,21.70
2018-04-09T14:30:10.574Z,21.60
2018-04-09T14:32:38.048Z,21.30
2018-04-09T14:35:05.635Z,21.20
2018-04-09T14:37:33.369Z,21.10
2018-04-09T14:40:00.255Z,21.10
2018-04-09T14:42:26.919Z,21.10
2018-04-09T14:44:53.768Z,21.10
2018-04-09T14:47:20.748Z,21.00
2018-04-09T14:49:47.222Z,21.00
2018-04-09T14:52:14.695Z,20.80
2018-04-09T14:54:42.159Z,20.80
2018-04-09T14:57:09.139Z,20.90
2018-04-09T14:59:37.017Z,20.80
2018-04-09T15:02:03.755Z,20.80
2018-04-09T15:04:30.531Z,20.80
2018-04-09T15:06:58.221Z,20.90
2018-04-09T15:09:25.323Z,20.90
2018-04-09T15:11:52.144Z,20.90
2018-04-09T15:14:19.936Z,20.80
2018-04-09T15:16:47.499Z,20.80
2018-04-09T15:19:14.335Z,20.70
2018-04-09T15:21:42.414Z,20.60
2018-04-09T15:24:10.164Z,20.60
2018-04-09T15:26:37.208Z,20.50
2018-04-09T15:29:04.476Z,20.60
2018-04-09T15:31:31.648Z,20.50
2018-04-09T15:33:58.326Z,20.50
2018-04-09T15:36:25.116Z,20.40
2018-04-09T15:38:51.966Z,20.30
2018-04-09T15:41:18.830Z,20.30
2018-04-09T15:43:45.596Z,20.30
2018-04-09T15:46:12.571Z,20.30
2018-04-09T15:48:39.119Z,20.30
2018-04-09T15:51:05.899Z,20.30
2018-04-09T15:53:33.329Z,20.20
2018-04-09T15:56:00.121Z,20.20
2018-04-09T15:58:26.877Z,20.20
2018-04-09T16:00:53.648Z,20.10
2018-04-09T16:03:20.696Z,20.10
2018-04-09T16:05:47.700Z,19.90
2018-04-09T16:08:14.457Z,19.80
2018-04-09T16:10:41.184Z,19.70
2018-04-09T16:13:08.069Z,19.50
2018-04-09T16:15:34.851Z,19.40
2018-04-09T16:18:05.607Z,19.30
2018-04-09T16:20:32.328Z,19.10
2018-04-09T16:22:58.986Z,19.00
2018-04-09T16:25:26.788Z,18.90
2018-04-09T16:27:54.479Z,18.70
2018-04-09T16:30:21.320Z,18.70
2018-04-09T16:32:48.836Z,18.50
2018-04-09T16:35:18.324Z,18.40
2018-04-09T16:37:46.814Z,18.40
2018-04-09T16:40:14.232Z,18.30
2018-04-09T16:42:44.462Z,18.20
2018-04-09T16:45:11.239Z,18.10
2018-04-09T16:47:38.276Z,18.00
2018-04-09T16:50:05.243Z,17.90
2018-04-09T16:52:32.969Z,17.80
2018-04-09T16:55:00.815Z,17.70
2018-04-09T16:57:28.399Z,17.60
2018-04-09T16:59:56.017Z,17.50
2018-04-09T17:02:22.996Z,17.50
2018-04-09T17:04:52.028Z,17.30
2018-04-09T17:07:19.746Z,17.20
2018-04-09T17:09:46.536Z,17.20
2018-04-09T17:12:13.531Z,17.20
2018-04-09T17:14:41.308Z,17.00
2018-04-09T17:17:08.435Z,17.00
2018-04-09T17:19:34.954Z,17.00
2018-04-09T17:22:03.489Z,16.80
2018-04-09T17:24:30.508Z,16.80
2018-04-09T17:26:57.429Z,16.80
2018-04-09T17:29:24.334Z,16.70
2018-04-09T17:31:52.280Z,16.60
2018-04-09T17:34:19.566Z,16.50
2018-04-09T17:36:48.086Z,16.50
2018-04-09T17:39:15.643Z,16.40
2018-04-09T17:41:44.959Z,16.30
2018-04-09T17:44:13.158Z,16.20
2018-04-09T17:46:40.198Z,16.10
2018-04-09T17:49:08.376Z,16.00
2018-04-09T17:51:36.883Z,15.80
2018-04-09T17:54:04.247Z,15.80
2018-04-09T17:56:30.895Z,15.70
2018-04-09T17:58:57.774Z,15.60
2018-04-09T18:01:25.548Z,15.40
2018-04-09T18:03:52.705Z,15.40
2018-04-09T18:06:20.134Z,15.30
2018-04-09T18:08:47.603Z,15.20
2018-04-09T18:11:15.152Z,15.10
2018-04-09T18:13:42.908Z,15.10
2018-04-09T18:16:09.628Z,15.00
2018-04-09T18:18:37.386Z,14.80
2018-04-09T18:21:04.280Z,14.80
2018-04-09T18:23:31.836Z,14.70
2018-04-09T18:25:59.151Z,14.60
2018-04-09T18:28:26.482Z,14.60
2018-04-09T18:30:53.776Z,14.60
2018-04-09T18:33:20.637Z,14.50
2018-04-09T18:35:47.699Z,14.50
2018-04-09T18:38:14.934Z,14.40
2018-04-09T18:40:42.723Z,14.30
2018-04-09T18:43:10.164Z,14.30
2018-04-09T18:45:37.271Z,14.30
2018-04-09T18:48:04.167Z,14.20
2018-04-09T18:50:31.101Z,14.20
2018-04-09T18:52:57.937Z,14.10
2018-04-09T18:55:26.880Z,14.10
2018-04-09T18:57:53.787Z,14.10
2018-04-09T19:00:20.664Z,14.10
2018-04-09T19:02:47.489Z,14.10
2018-04-09T19:05:15.814Z,14.10
2018-04-09T19:07:42.898Z,14.00
2018-04-09T19:10:10.016Z,14.00
2018-04-09T19:12:37.639Z,13.90
2018-04-09T19:15:06.787Z,13.80
2018-04-09T19:17:36.052Z,13.80
2018-04-09T19:20:02.960Z,13.80
2018-04-09T19:22:32.232Z,13.60
2018-04-09T19:25:01.357Z,13.60
2018-04-09T19:27:29.156Z,13.60
2018-04-09T19:29:56.391Z,13.50
2018-04-09T19:32:25.769Z,13.50
2018-04-09T19:35:02.166Z,13.40
2018-04-09T19:37:38.209Z,13.30
2018-04-09T19:40:13.099Z,13.30
2018-04-09T19:57:28.998Z,13.20
2018-04-09T20:00:14.752Z,13.10
2018-04-09T20:02:42.026Z,13.10
2018-04-09T20:05:08.698Z,13.10
2018-04-09T20:07:35.452Z,13.00
2018-04-09T20:10:02.947Z,13.00
2018-04-09T20:12:29.696Z,12.90
2018-04-09T20:14:56.519Z,12.90
2018-04-09T20:17:23.206Z,12.80
2018-04-09T20:19:50.295Z,12.80
2018-04-09T20:22:17.708Z,12.80
2018-04-09T20:24:45.136Z,12.70
2018-04-09T20:27:11.911Z,12.70
2018-04-09T20:29:38.217Z,12.60
2018-04-09T20:32:04.805Z,12.60
2018-04-09T20:34:31.380Z,12.60
2018-04-09T20:36:58.356Z,12.50
2018-04-09T20:39:24.921Z,12.50
2018-04-09T20:41:51.561Z,12.40
2018-04-09T20:44:18.127Z,12.40
2018-04-09T20:46:44.819Z,12.30
2018-04-09T20:49:12.175Z,12.30
2018-04-09T20:51:38.935Z,12.30
2018-04-09T20:54:06.152Z,12.30
2018-04-09T20:56:32.749Z,12.20
2018-04-09T20:58:59.321Z,12.20
2018-04-09T21:01:26.112Z,12.20
2018-04-09T21:03:53.178Z,12.10
2018-04-09T21:06:20.675Z,12.10
2018-04-09T21:08:47.408Z,12.10
2018-04-09T21:11:14.122Z,12.10
2018-04-09T21:13:40.836Z,12.10
2018-04-09T21:16:07.583Z,12.10
2018-04-09T21:18:34.247Z,12.10
2018-04-09T21:21:00.910Z,12.00
2018-04-09T21:23:27.463Z,12.00
2018-04-09T21:25:54.017Z,12.00
2018-04-09T21:28:20.677Z,12.00
2018-04-09T21:30:47.198Z,12.00
2018-04-09T21:33:13.785Z,11.90
2018-04-09T21:35:40.459Z,11.90
2018-04-09T21:38:06.984Z,11.90
2018-04-09T21:40:33.360Z,11.80
2018-04-09T21:42:59.664Z,11.80
2018-04-09T21:45:27.230Z,11.70
2018-04-09T21:47:54.292Z,11.60
2018-04-09T21:50:20.932Z,11.60
2018-04-09T21:52:47.485Z,11.60
2018-04-09T21:55:14.160Z,11.60
2018-04-09T21:57:40.823Z,11.50
2018-04-09T22:00:07.472Z,11.50
2018-04-09T22:02:34.149Z,11.40
2018-04-09T22:05:01.211Z,11.30
2018-04-09T22:07:27.761Z,11.30
2018-04-09T22:09:54.443Z,11.20
2018-04-09T22:12:21.067Z,11.10
2018-04-09T22:14:47.646Z,11.10
2018-04-09T22:17:15.008Z,11.10
2018-04-09T22:19:41.570Z,11.00
2018-04-09T22:22:08.230Z,10.90
2018-04-09T22:24:34.778Z,10.90
2018-04-09T22:27:01.453Z,10.90
2018-04-09T22:29:28.124Z,10.80
2018-04-09T22:31:54.787Z,10.80
2018-04-09T22:34:21.902Z,10.70
2018-04-09T22:36:48.506Z,10.70
2018-04-09T22:39:15.886Z,10.60
2018-04-09T22:41:42.220Z,10.60
2018-04-09T22:44:09.614Z,10.60
2018-04-09T22:46:36.986Z,10.60
2018-04-09T22:49:03.556Z,10.60
2018-04-09T22:51:30.120Z,10.60
2018-04-09T22:53:56.812Z,10.50
2018-04-09T22:56:24.100Z,10.50
2018-04-09T22:58:51.516Z,10.50
2018-04-09T23:01:18.281Z,10.40
2018-04-09T23:03:44.952Z,10.50
2018-04-09T23:06:11.604Z,10.40
2018-04-09T23:08:38.165Z,10.40
2018-04-09T23:11:04.740Z,10.40
2018-04-09T23:13:31.370Z,10.40
2018-04-09T23:15:57.940Z,10.30
2018-04-09T23:18:25.531Z,10.30
2018-04-09T23:20:52.201Z,10.30
2018-04-09T23:23:18.749Z,10.30
2018-04-09T23:25:45.401Z,10.20
2018-04-09T23:28:11.969Z,10.20
2018-04-09T23:30:38.625Z,10.10
2018-04-09T23:33:05.277Z,10.10
2018-04-09T23:35:31.951Z,10.00
2018-04-09T23:37:58.611Z,10.00
2018-04-09T23:40:25.201Z,10.00
2018-04-09T23:42:52.637Z,10.00
2018-04-09T23:45:19.661Z,9.90
2018-04-09T23:47:46.903Z,9.90
2018-04-09T23:50:14.066Z,9.90
2018-04-09T23:52:40.815Z,9.80
2018-04-09T23:55:08.141Z,9.80
2018-04-09T23:57:35.590Z,9.70
